createdAt,value
2023-04-22T00:00:53.831Z,14.31
2023-04-22T00:01:53.828Z,14.31
2023-04-22T00:02:53.906Z,14.27
2023-04-22T00:03:53.908Z,14.31
2023-04-22T00:04:54.195Z,14.31
2023-04-22T00:05:53.811Z,14.31
2023-04-22T00:06:53.771Z,14.27
2023-04-22T00:07:53.776Z,14.23
2023-04-22T00:08:53.742Z,14.30
2023-04-22T00:09:53.753Z,14.22
2023-04-22T00:10:53.725Z,14.18
2023-04-22T00:11:53.726Z,14.16
2023-04-22T00:12:53.720Z,14.15
2023-04-22T00:13:53.703Z,14.23
2023-04-22T00:14:53.704Z,14.15
2023-04-22T00:15:53.670Z,14.05
2023-04-22T00:16:53.652Z,14.11
2023-04-22T00:17:53.679Z,14.11
2023-04-22T00:18:53.632Z,14.09
2023-04-22T00:19:53.651Z,14.05
2023-04-22T00:20:53.613Z,14.08
2023-04-22T00:21:53.604Z,13.93
2023-04-22T00:22:53.611Z,13.94
2023-04-22T00:23:53.577Z,14.00
2023-04-22T00:24:53.582Z,14.01
2023-04-22T00:25:53.560Z,13.93
2023-04-22T00:26:53.549Z,14.03
2023-04-22T00:27:53.543Z,13.97
2023-04-22T00:28:53.571Z,13.90
2023-04-22T00:29:53.518Z,13.86
2023-04-22T00:30:53.533Z,13.91
2023-04-22T00:31:53.559Z,13.90
2023-04-22T00:32:53.512Z,13.93
2023-04-22T00:33:53.516Z,13.82
2023-04-22T00:34:53.456Z,13.82
2023-04-22T00:35:53.456Z,13.83
2023-04-22T00:36:53.432Z,13.80
2023-04-22T00:37:53.435Z,13.83
2023-04-22T00:38:53.429Z,13.79
2023-04-22T00:39:53.418Z,13.78
2023-04-22T00:40:53.386Z,13.68
2023-04-22T00:41:53.380Z,13.80
2023-04-22T00:42:53.369Z,13.76
2023-04-22T00:43:53.385Z,13.68
2023-04-22T00:44:53.362Z,13.75
2023-04-22T00:45:53.366Z,13.73
2023-04-22T00:46:53.381Z,13.61
2023-04-22T00:47:53.376Z,13.72
2023-04-22T00:48:53.310Z,13.65
2023-04-22T00:49:53.308Z,13.63
2023-04-22T00:50:53.298Z,13.61
2023-04-22T00:51:53.283Z,13.61
2023-04-22T00:52:53.260Z,13.61
2023-04-22T00:53:53.244Z,13.57
2023-04-22T00:54:53.242Z,13.61
2023-04-22T00:55:53.250Z,13.54
2023-04-22T00:56:53.222Z,13.58
2023-04-22T00:57:53.199Z,13.51
2023-04-22T00:58:53.195Z,13.55
2023-04-22T00:59:53.178Z,13.51
2023-04-22T01:00:53.235Z,13.55
2023-04-22T01:01:53.194Z,13.40
2023-04-22T01:02:53.274Z,13.39
2023-04-22T01:03:53.340Z,13.42
2023-04-22T01:04:53.159Z,13.36
2023-04-22T01:05:53.115Z,13.38
2023-04-22T01:06:53.111Z,13.32
2023-04-22T01:07:53.101Z,13.38
2023-04-22T01:08:53.110Z,13.39
2023-04-22T01:09:53.077Z,13.39
2023-04-22T01:10:53.065Z,13.36
2023-04-22T01:11:53.058Z,13.21
2023-04-22T01:12:53.049Z,13.27
2023-04-22T01:13:53.059Z,13.23
2023-04-22T01:14:53.034Z,13.19
2023-04-22T01:15:53.039Z,13.27
2023-04-22T01:16:53.096Z,13.21
2023-04-22T01:17:53.019Z,13.19
2023-04-22T01:18:53.004Z,13.24
2023-04-22T01:19:52.989Z,13.29
2023-04-22T01:20:52.981Z,13.26
2023-04-22T01:21:52.948Z,13.11
2023-04-22T01:22:52.964Z,13.17
2023-04-22T01:23:52.936Z,13.20
2023-04-22T01:24:52.922Z,13.17
2023-04-22T01:25:52.906Z,13.23
2023-04-22T01:26:52.917Z,13.08
2023-04-22T01:27:52.902Z,13.21
2023-04-22T01:28:52.875Z,13.11
2023-04-22T01:29:52.865Z,13.06
2023-04-22T01:30:52.873Z,13.08
2023-04-22T01:31:52.907Z,13.02
2023-04-22T01:32:52.982Z,12.99
2023-04-22T01:33:52.817Z,13.04
2023-04-22T01:34:52.821Z,12.99
2023-04-22T01:35:52.805Z,12.96
2023-04-22T01:36:52.813Z,13.04
2023-04-22T01:37:52.777Z,13.05
2023-04-22T01:38:52.767Z,12.93
2023-04-22T01:39:52.751Z,13.01
2023-04-22T01:40:52.767Z,12.93
2023-04-22T01:41:52.737Z,12.96
2023-04-22T01:42:52.723Z,12.88
2023-04-22T01:43:52.730Z,12.86
2023-04-22T01:44:52.713Z,12.84
2023-04-22T01:45:52.724Z,12.84
2023-04-22T01:46:52.680Z,12.95
2023-04-22T01:47:52.735Z,12.90
2023-04-22T01:48:52.720Z,12.80
2023-04-22T01:49:52.671Z,12.80
2023-04-22T01:50:52.645Z,12.88
2023-04-22T01:51:52.641Z,12.80
2023-04-22T01:52:52.620Z,12.83
2023-04-22T01:53:52.643Z,12.77
2023-04-22T01:54:52.601Z,12.79
2023-04-22T01:55:52.582Z,12.76
2023-04-22T01:56:52.596Z,12.79
2023-04-22T01:57:52.630Z,12.69
2023-04-22T01:58:52.556Z,12.80
2023-04-22T01:59:52.547Z,12.68
2023-04-22T02:00:52.532Z,12.71
2023-04-22T02:01:52.645Z,12.66
2023-04-22T02:02:52.579Z,12.69
2023-04-22T02:03:52.606Z,12.76
2023-04-22T02:04:52.683Z,12.61
2023-04-22T02:05:52.478Z,12.62
2023-04-22T02:06:52.487Z,12.61
2023-04-22T02:07:52.455Z,12.65
2023-04-22T02:08:52.473Z,12.54
2023-04-22T02:09:52.425Z,12.65
2023-04-22T02:10:52.432Z,12.58
2023-04-22T02:11:52.401Z,12.55
2023-04-22T02:12:52.401Z,12.58
2023-04-22T02:13:52.407Z,12.58
2023-04-22T02:14:52.406Z,12.55
2023-04-22T02:15:52.434Z,12.54
2023-04-22T02:16:52.373Z,12.46
2023-04-22T02:17:52.342Z,12.50
2023-04-22T02:18:52.351Z,12.55
2023-04-22T02:19:52.422Z,12.46
2023-04-22T02:20:52.333Z,12.47
2023-04-22T02:21:52.299Z,12.53
2023-04-22T02:22:52.292Z,12.47
2023-04-22T02:23:52.268Z,12.47
2023-04-22T02:24:52.297Z,12.44
2023-04-22T02:25:52.263Z,12.46
2023-04-22T02:26:52.234Z,12.48
2023-04-22T02:27:52.229Z,12.43
2023-04-22T02:28:52.229Z,12.33
2023-04-22T02:29:52.235Z,12.38
2023-04-22T02:30:52.197Z,12.40
2023-04-22T02:31:52.217Z,12.41
2023-04-22T02:32:52.282Z,12.41
2023-04-22T02:33:52.169Z,12.38
2023-04-22T02:34:52.186Z,12.35
2023-04-22T02:35:52.142Z,12.33
2023-04-22T02:36:52.154Z,12.29
2023-04-22T02:37:52.118Z,12.35
2023-04-22T02:38:52.110Z,12.29
2023-04-22T02:39:52.123Z,12.28
2023-04-22T02:40:52.091Z,12.38
2023-04-22T02:41:52.078Z,12.25
2023-04-22T02:42:52.071Z,12.23
2023-04-22T02:43:52.054Z,12.23
2023-04-22T02:44:52.061Z,12.13
2023-04-22T02:45:52.055Z,12.25
2023-04-22T02:46:52.046Z,12.25
2023-04-22T02:47:52.034Z,12.18
2023-04-22T02:48:52.016Z,12.18
2023-04-22T02:49:51.986Z,12.23
2023-04-22T02:50:52.005Z,12.11
2023-04-22T02:51:51.966Z,12.13
2023-04-22T02:52:51.984Z,12.17
2023-04-22T02:53:51.943Z,12.18
2023-04-22T02:54:51.953Z,12.15
2023-04-22T02:55:51.951Z,12.15
2023-04-22T02:56:51.915Z,12.14
2023-04-22T02:57:51.901Z,12.21
2023-04-22T02:58:51.891Z,12.11
2023-04-22T02:59:51.903Z,12.04
2023-04-22T03:00:51.966Z,12.00
2023-04-22T03:01:51.906Z,11.97
2023-04-22T03:02:52.071Z,12.04
2023-04-22T03:03:52.004Z,11.97
2023-04-22T03:04:51.830Z,12.03
2023-04-22T03:05:51.811Z,12.05
2023-04-22T03:06:51.838Z,12.04
2023-04-22T03:07:51.801Z,11.99
2023-04-22T03:08:51.809Z,12.03
2023-04-22T03:09:51.771Z,12.03
2023-04-22T03:10:51.766Z,11.84
2023-04-22T03:11:51.770Z,11.88
2023-04-22T03:12:51.746Z,11.96
2023-04-22T03:13:51.733Z,11.87
2023-04-22T03:14:51.727Z,11.84
2023-04-22T03:15:51.724Z,11.95
2023-04-22T03:16:51.771Z,11.91
2023-04-22T03:17:51.732Z,11.93
2023-04-22T03:18:51.688Z,11.85
2023-04-22T03:19:51.680Z,11.87
2023-04-22T03:20:51.653Z,11.85
2023-04-22T03:21:51.666Z,11.85
2023-04-22T03:22:51.641Z,11.82
2023-04-22T03:23:51.628Z,11.87
2023-04-22T03:24:51.662Z,11.93
2023-04-22T03:25:51.601Z,11.96
2023-04-22T03:26:51.612Z,11.85
2023-04-22T03:27:51.582Z,11.93
2023-04-22T03:28:51.607Z,11.93
2023-04-22T03:29:51.558Z,11.93
2023-04-22T03:30:51.572Z,11.79
2023-04-22T03:31:51.650Z,11.77
2023-04-22T03:32:51.559Z,11.82
2023-04-22T03:33:51.511Z,11.91
2023-04-22T03:34:51.507Z,11.80
2023-04-22T03:35:51.517Z,11.87
2023-04-22T03:36:51.491Z,11.77
2023-04-22T03:37:51.470Z,11.91
2023-04-22T03:38:51.491Z,11.82
2023-04-22T03:39:51.456Z,11.80
2023-04-22T03:40:51.753Z,11.79
2023-04-22T03:41:51.428Z,11.76
2023-04-22T03:42:51.420Z,11.85
2023-04-22T03:43:51.402Z,11.73
2023-04-22T03:44:51.401Z,11.70
2023-04-22T03:45:51.432Z,11.73
2023-04-22T03:46:51.373Z,11.71
2023-04-22T03:47:51.376Z,11.74
2023-04-22T03:48:51.363Z,11.69
2023-04-22T03:49:51.356Z,11.76
2023-04-22T03:50:51.358Z,11.74
2023-04-22T03:51:51.332Z,11.70
2023-04-22T03:52:51.320Z,11.73
2023-04-22T03:53:51.304Z,11.74
2023-04-22T03:54:51.306Z,11.64
2023-04-22T03:55:51.308Z,11.74
2023-04-22T03:56:51.310Z,11.71
2023-04-22T03:57:51.261Z,11.64
2023-04-22T03:58:51.256Z,11.64
2023-04-22T03:59:51.233Z,11.67
2023-04-22T04:00:51.256Z,11.62
2023-04-22T04:01:51.206Z,11.56
2023-04-22T04:02:51.386Z,11.56
2023-04-22T04:03:51.342Z,11.66
2023-04-22T04:04:51.734Z,11.61
2023-04-22T04:05:51.192Z,11.56
2023-04-22T04:06:51.201Z,11.64
2023-04-22T04:07:51.167Z,11.55
2023-04-22T04:08:51.133Z,11.51
2023-04-22T04:09:51.136Z,11.55
2023-04-22T04:10:51.118Z,11.59
2023-04-22T04:11:51.119Z,11.56
2023-04-22T04:12:51.117Z,11.58
2023-04-22T04:13:51.084Z,11.58
2023-04-22T04:14:51.104Z,11.58
2023-04-22T04:15:51.121Z,11.52
2023-04-22T04:16:51.051Z,11.54
2023-04-22T04:17:51.079Z,11.51
2023-04-22T04:18:51.030Z,11.51
2023-04-22T04:19:51.015Z,11.45
2023-04-22T04:20:51.012Z,11.48
2023-04-22T04:21:51.014Z,11.48
2023-04-22T04:22:51.021Z,11.48
2023-04-22T04:23:50.984Z,11.48
2023-04-22T04:24:50.967Z,11.45
2023-04-22T04:25:50.951Z,11.45
2023-04-22T04:26:50.947Z,11.49
2023-04-22T04:27:50.926Z,11.41
2023-04-22T04:28:51.079Z,11.55
2023-04-22T04:29:50.936Z,11.46
2023-04-22T04:30:50.913Z,11.43
2023-04-22T04:31:50.974Z,11.40
2023-04-22T04:32:50.928Z,11.40
2023-04-22T04:33:50.860Z,11.38
2023-04-22T04:34:50.854Z,11.40
2023-04-22T04:35:50.854Z,11.37
2023-04-22T04:36:50.864Z,11.37
2023-04-22T04:37:50.844Z,11.34
2023-04-22T04:38:51.255Z,11.37
2023-04-22T04:39:50.801Z,11.45
2023-04-22T04:40:50.790Z,11.37
2023-04-22T04:41:50.802Z,11.30
2023-04-22T04:42:50.764Z,11.30
2023-04-22T04:43:50.757Z,11.25
2023-04-22T04:44:50.761Z,11.36
2023-04-22T04:45:50.752Z,11.28
2023-04-22T04:46:50.827Z,11.36
2023-04-22T04:47:50.822Z,11.30
2023-04-22T04:48:50.740Z,11.37
2023-04-22T04:49:50.688Z,11.30
2023-04-22T04:50:50.678Z,11.34
2023-04-22T04:51:50.665Z,11.30
2023-04-22T04:52:51.585Z,11.30
2023-04-22T04:53:50.642Z,11.28
2023-04-22T04:54:50.636Z,11.33
2023-04-22T04:55:50.620Z,11.25
2023-04-22T04:56:50.633Z,11.36
2023-04-22T04:57:50.613Z,11.33
2023-04-22T04:58:50.596Z,11.30
2023-04-22T04:59:50.583Z,11.28
2023-04-22T05:00:50.596Z,11.31
2023-04-22T05:01:50.677Z,11.28
2023-04-22T05:02:50.646Z,11.27
2023-04-22T05:03:50.738Z,11.28
2023-04-22T05:04:50.654Z,11.28
2023-04-22T05:05:50.521Z,11.30
2023-04-22T05:06:50.558Z,11.28
2023-04-22T05:07:50.496Z,11.28
2023-04-22T05:08:50.494Z,11.30
2023-04-22T05:09:50.479Z,11.27
2023-04-22T05:10:50.466Z,11.34
2023-04-22T05:11:50.456Z,11.33
2023-04-22T05:12:50.475Z,11.28
2023-04-22T05:13:50.439Z,11.31
2023-04-22T05:14:50.423Z,11.28
2023-04-22T05:15:50.423Z,11.28
2023-04-22T05:16:50.613Z,11.34
2023-04-22T05:17:50.483Z,11.30
2023-04-22T05:18:50.386Z,11.34
2023-04-22T05:19:50.384Z,11.40
2023-04-22T05:20:50.358Z,11.37
2023-04-22T05:21:50.355Z,11.40
2023-04-22T05:22:50.364Z,11.33
2023-04-22T05:23:50.335Z,11.36
2023-04-22T05:24:50.310Z,11.46
2023-04-22T05:25:52.742Z,11.38
2023-04-22T05:26:50.290Z,11.40
2023-04-22T05:27:50.310Z,11.38
2023-04-22T05:28:50.277Z,11.49
2023-04-22T05:29:50.273Z,11.41
2023-04-22T05:30:50.276Z,11.49
2023-04-22T05:31:50.310Z,11.51
2023-04-22T05:32:50.364Z,11.43
2023-04-22T05:33:50.233Z,11.41
2023-04-22T05:34:50.215Z,11.51
2023-04-22T05:35:50.228Z,11.43
2023-04-22T05:36:50.182Z,11.51
2023-04-22T05:37:50.181Z,11.58
2023-04-22T05:38:50.173Z,11.55
2023-04-22T05:39:50.160Z,11.59
2023-04-22T05:40:50.184Z,11.58
2023-04-22T05:41:50.145Z,11.62
2023-04-22T05:42:50.129Z,11.55
2023-04-22T05:43:50.140Z,11.67
2023-04-22T05:44:50.099Z,11.62
2023-04-22T05:45:50.188Z,11.64
2023-04-22T05:46:50.083Z,11.69
2023-04-22T05:47:50.136Z,11.59
2023-04-22T05:48:50.085Z,11.67
2023-04-22T05:49:50.048Z,11.70
2023-04-22T05:50:50.056Z,11.74
2023-04-22T05:51:50.036Z,11.79
2023-04-22T05:52:50.028Z,11.71
2023-04-22T05:53:50.023Z,11.82
2023-04-22T05:54:50.008Z,11.82
2023-04-22T05:55:49.999Z,11.77
2023-04-22T05:56:50.000Z,11.84
2023-04-22T05:57:49.968Z,11.80
2023-04-22T05:58:49.959Z,11.85
2023-04-22T05:59:49.935Z,11.93
2023-04-22T06:00:49.928Z,11.88
2023-04-22T06:01:49.955Z,11.93
2023-04-22T06:02:50.199Z,11.89
2023-04-22T06:03:50.207Z,11.87
2023-04-22T06:04:50.430Z,11.85
2023-04-22T06:05:49.941Z,11.95
2023-04-22T06:06:49.876Z,11.97
2023-04-22T06:07:49.851Z,11.99
2023-04-22T06:08:49.832Z,12.05
2023-04-22T06:09:49.827Z,12.04
2023-04-22T06:10:49.820Z,12.05
2023-04-22T06:11:49.827Z,11.96
2023-04-22T06:12:49.798Z,12.04
2023-04-22T06:13:49.783Z,12.11
2023-04-22T06:14:49.772Z,12.11
2023-04-22T06:15:49.780Z,12.14
2023-04-22T06:16:49.780Z,12.32
2023-04-22T06:17:49.828Z,12.22
2023-04-22T06:18:49.721Z,12.28
2023-04-22T06:19:49.749Z,12.26
2023-04-22T06:20:49.726Z,12.23
2023-04-22T06:21:49.741Z,12.29
2023-04-22T06:22:49.678Z,12.35
2023-04-22T06:23:49.677Z,12.26
2023-04-22T06:24:49.691Z,12.33
2023-04-22T06:25:49.656Z,12.36
2023-04-22T06:26:49.637Z,12.38
2023-04-22T06:27:49.635Z,12.44
2023-04-22T06:28:49.624Z,12.44
2023-04-22T06:29:49.641Z,12.47
2023-04-22T06:30:49.685Z,12.55
2023-04-22T06:31:49.622Z,12.61
2023-04-22T06:32:49.603Z,12.54
2023-04-22T06:33:49.574Z,12.58
2023-04-22T06:34:49.569Z,12.59
2023-04-22T06:35:49.542Z,12.62
2023-04-22T06:36:49.586Z,12.59
2023-04-22T06:37:49.532Z,12.58
2023-04-22T06:38:49.509Z,12.71
2023-04-22T06:39:49.495Z,12.73
2023-04-22T06:40:49.483Z,12.72
2023-04-22T06:41:49.521Z,12.81
2023-04-22T06:42:49.486Z,12.79
2023-04-22T06:43:49.474Z,12.83
2023-04-22T06:44:49.454Z,12.87
2023-04-22T06:45:49.463Z,12.93
2023-04-22T06:46:49.442Z,12.95
2023-04-22T06:47:49.466Z,12.95
2023-04-22T06:48:49.412Z,13.05
2023-04-22T06:49:49.388Z,12.99
2023-04-22T06:50:49.396Z,13.01
2023-04-22T06:51:49.375Z,13.06
2023-04-22T06:52:49.377Z,13.14
2023-04-22T06:53:49.372Z,13.09
2023-04-22T06:54:49.336Z,13.19
2023-04-22T06:55:49.348Z,13.21
2023-04-22T06:56:49.315Z,13.23
2023-04-22T06:57:49.306Z,13.23
2023-04-22T06:58:49.312Z,13.32
2023-04-22T06:59:49.283Z,13.38
2023-04-22T07:00:49.288Z,13.38
2023-04-22T07:01:49.272Z,13.42
2023-04-22T07:02:49.336Z,13.43
2023-04-22T07:03:49.313Z,13.43
2023-04-22T07:04:49.229Z,13.55
2023-04-22T07:05:49.252Z,13.53
2023-04-22T07:06:49.229Z,13.58
2023-04-22T07:07:49.198Z,13.65
2023-04-22T07:08:49.204Z,13.65
2023-04-22T07:09:49.186Z,13.72
2023-04-22T07:10:49.166Z,13.67
2023-04-22T07:11:49.175Z,13.67
2023-04-22T07:12:49.139Z,13.76
2023-04-22T07:13:49.122Z,13.86
2023-04-22T07:14:49.113Z,13.86
2023-04-22T07:15:49.137Z,13.90
2023-04-22T07:16:49.225Z,13.90
2023-04-22T07:17:49.098Z,13.88
2023-04-22T07:18:49.075Z,14.00
2023-04-22T07:19:49.068Z,13.98
2023-04-22T07:20:49.067Z,14.05
2023-04-22T07:21:49.066Z,14.08
2023-04-22T07:22:49.044Z,14.12
2023-04-22T07:23:49.023Z,14.19
2023-04-22T07:24:49.025Z,14.22
2023-04-22T07:25:49.004Z,14.21
2023-04-22T07:26:49.013Z,14.22
2023-04-22T07:27:49.011Z,14.27
2023-04-22T07:28:48.961Z,14.30
2023-04-22T07:29:48.950Z,14.40
2023-04-22T07:30:48.963Z,14.37
2023-04-22T07:31:48.989Z,14.45
2023-04-22T07:32:49.132Z,14.48
2023-04-22T07:33:48.913Z,14.48
2023-04-22T07:34:48.899Z,14.55
2023-04-22T07:35:48.911Z,14.63
2023-04-22T07:36:48.873Z,14.63
2023-04-22T07:37:48.894Z,14.63
2023-04-22T07:38:48.855Z,14.77
2023-04-22T07:39:48.847Z,14.83
2023-04-22T07:40:48.871Z,14.82
2023-04-22T07:41:48.823Z,14.93
2023-04-22T07:42:48.833Z,14.93
2023-04-22T07:43:48.799Z,14.97
2023-04-22T07:44:48.793Z,14.99
2023-04-22T07:45:48.815Z,14.96
2023-04-22T07:46:48.782Z,15.11
2023-04-22T07:47:48.780Z,15.07
2023-04-22T07:48:48.743Z,15.15
2023-04-22T07:49:48.732Z,15.17
2023-04-22T07:50:48.725Z,15.22
2023-04-22T07:51:48.714Z,15.23
2023-04-22T07:52:48.755Z,15.29
2023-04-22T07:53:48.696Z,15.33
2023-04-22T07:54:48.688Z,15.47
2023-04-22T07:55:48.674Z,15.41
2023-04-22T07:56:48.683Z,15.47
2023-04-22T07:57:48.655Z,15.52
2023-04-22T07:58:48.657Z,15.60
2023-04-22T07:59:48.626Z,15.54
2023-04-22T08:00:48.656Z,15.59
2023-04-22T08:01:48.605Z,15.66
2023-04-22T08:02:48.732Z,15.69
2023-04-22T08:03:48.791Z,15.77
2023-04-22T08:04:48.682Z,15.77
2023-04-22T08:05:48.563Z,15.87
2023-04-22T08:06:48.567Z,15.93
2023-04-22T08:07:48.545Z,16.00
2023-04-22T08:08:48.525Z,16.00
2023-04-22T08:09:48.556Z,16.02
2023-04-22T08:10:48.509Z,16.13
2023-04-22T08:11:48.502Z,16.09
2023-04-22T08:12:48.516Z,16.29
2023-04-22T08:13:48.495Z,16.25
2023-04-22T08:14:48.500Z,16.37
2023-04-22T08:15:48.539Z,16.40
2023-04-22T08:16:48.456Z,16.42
2023-04-22T08:17:48.470Z,16.49
2023-04-22T08:18:48.426Z,16.47
2023-04-22T08:19:48.416Z,16.61
2023-04-22T08:20:48.428Z,16.65
2023-04-22T08:21:48.416Z,16.65
2023-04-22T08:22:48.382Z,16.70
2023-04-22T08:23:48.381Z,16.70
2023-04-22T08:24:48.383Z,16.83
2023-04-22T08:25:48.353Z,16.83
2023-04-22T08:26:48.350Z,16.87
2023-04-22T08:27:48.330Z,17.04
2023-04-22T08:28:48.339Z,17.09
2023-04-22T08:29:48.344Z,17.13
2023-04-22T08:30:48.310Z,17.12
2023-04-22T08:31:48.438Z,17.13
2023-04-22T08:32:48.297Z,17.24
2023-04-22T08:33:48.266Z,17.25
2023-04-22T08:34:51.596Z,17.27
2023-04-22T08:35:48.274Z,17.37
2023-04-22T08:36:48.228Z,17.43
2023-04-22T08:37:48.253Z,17.39
2023-04-22T08:38:50.038Z,17.49
2023-04-22T08:39:48.200Z,17.50
2023-04-22T08:40:48.193Z,17.49
2023-04-22T08:41:48.200Z,17.66
2023-04-22T08:42:48.174Z,17.72
2023-04-22T08:43:48.160Z,17.72
2023-04-22T08:44:48.170Z,17.88
2023-04-22T08:45:48.138Z,17.86
2023-04-22T08:46:48.214Z,17.94
2023-04-22T08:47:48.158Z,17.97
2023-04-22T08:48:48.100Z,18.08
2023-04-22T08:49:48.096Z,18.06
2023-04-22T08:50:48.079Z,18.18
2023-04-22T08:51:48.072Z,18.15
2023-04-22T08:52:48.075Z,18.23
2023-04-22T08:53:48.050Z,18.24
2023-04-22T08:54:48.032Z,18.28
2023-04-22T08:55:48.026Z,18.33
2023-04-22T08:56:48.022Z,18.31
2023-04-22T08:57:48.041Z,18.36
2023-04-22T08:58:47.990Z,18.46
2023-04-22T08:59:47.988Z,18.51
2023-04-22T09:00:47.989Z,18.57
2023-04-22T09:01:47.996Z,18.67
2023-04-22T09:02:48.019Z,18.68
2023-04-22T09:03:48.027Z,18.79
2023-04-22T09:04:47.931Z,18.89
2023-04-22T09:05:47.917Z,18.88
2023-04-22T09:06:47.903Z,18.97
2023-04-22T09:07:47.917Z,19.07
2023-04-22T09:08:47.902Z,19.09
2023-04-22T09:09:47.879Z,19.23
2023-04-22T09:10:47.873Z,19.30
2023-04-22T09:11:47.858Z,19.39
2023-04-22T09:12:47.864Z,19.41
2023-04-22T09:13:47.860Z,19.45
2023-04-22T09:14:47.835Z,19.50
2023-04-22T09:15:47.811Z,19.56
2023-04-22T09:16:47.913Z,19.62
2023-04-22T09:17:47.830Z,19.63
2023-04-22T09:18:47.791Z,19.67
2023-04-22T09:19:47.771Z,19.74
2023-04-22T09:20:47.759Z,19.75
2023-04-22T09:21:49.575Z,19.77
2023-04-22T09:22:47.759Z,19.84
2023-04-22T09:23:47.739Z,19.87
2023-04-22T09:24:47.703Z,19.86
2023-04-22T09:25:47.708Z,19.96
2023-04-22T09:26:47.688Z,20.07
2023-04-22T09:27:48.122Z,19.96
2023-04-22T09:28:47.696Z,20.08
2023-04-22T09:29:47.657Z,20.17
2023-04-22T09:30:47.676Z,20.12
2023-04-22T09:31:47.724Z,20.22
2023-04-22T09:32:47.863Z,20.32
2023-04-22T09:33:50.051Z,20.26
2023-04-22T09:34:47.605Z,20.36
2023-04-22T09:35:47.626Z,20.39
2023-04-22T09:36:47.587Z,20.39
2023-04-22T09:37:49.673Z,20.37
2023-04-22T09:38:47.565Z,20.39
2023-04-22T09:39:49.618Z,20.55
2023-04-22T09:40:47.579Z,20.53
2023-04-22T09:41:47.526Z,20.60
2023-04-22T09:42:47.519Z,20.63
2023-04-22T09:43:47.506Z,20.73
2023-04-22T09:44:47.494Z,20.80
2023-04-22T09:45:47.512Z,20.82
2023-04-22T09:46:47.469Z,21.00
2023-04-22T09:47:47.478Z,20.93
2023-04-22T09:48:47.464Z,21.11
2023-04-22T09:49:47.439Z,21.20
2023-04-22T09:50:47.451Z,21.30
2023-04-22T09:51:49.333Z,21.48
2023-04-22T09:52:47.404Z,21.60
2023-04-22T09:53:47.391Z,21.74
2023-04-22T09:54:47.391Z,21.81
2023-04-22T09:55:47.400Z,22.11
2023-04-22T09:56:47.368Z,22.13
2023-04-22T09:57:47.355Z,22.30
2023-04-22T09:58:47.367Z,22.36
2023-04-22T09:59:47.330Z,22.49
2023-04-22T10:00:47.326Z,22.64
2023-04-22T10:01:47.329Z,22.64
2023-04-22T10:02:47.376Z,22.85
2023-04-22T10:03:47.327Z,22.99
2023-04-22T10:04:47.315Z,23.07
2023-04-22T10:05:47.297Z,23.15
2023-04-22T10:06:47.271Z,23.28
2023-04-22T10:07:47.299Z,23.29
2023-04-22T10:08:47.252Z,23.39
2023-04-22T10:09:47.224Z,23.48
2023-04-22T10:10:47.237Z,23.56
2023-04-22T10:11:47.405Z,23.60
2023-04-22T10:12:47.197Z,23.67
2023-04-22T10:13:47.198Z,23.78
2023-04-22T10:14:47.176Z,23.84
2023-04-22T10:15:47.178Z,23.94
2023-04-22T10:16:47.209Z,24.03
2023-04-22T10:17:47.185Z,24.23
2023-04-22T10:18:47.128Z,24.45
2023-04-22T10:19:47.135Z,24.66
2023-04-22T10:20:47.128Z,24.70
2023-04-22T10:21:47.090Z,24.93
2023-04-22T10:22:47.084Z,25.14
2023-04-22T10:23:47.074Z,25.27
2023-04-22T10:24:47.081Z,25.45
2023-04-22T10:25:47.078Z,25.63
2023-04-22T10:26:47.044Z,25.81
2023-04-22T10:27:47.020Z,25.93
2023-04-22T10:28:47.016Z,26.11
2023-04-22T10:29:47.009Z,26.20
2023-04-22T10:30:47.068Z,26.36
2023-04-22T10:31:47.002Z,26.39
2023-04-22T10:32:46.982Z,26.45
2023-04-22T10:33:46.964Z,26.51
2023-04-22T10:34:46.957Z,26.53
2023-04-22T10:35:46.936Z,26.61
2023-04-22T10:36:46.978Z,26.79
2023-04-22T10:37:46.924Z,26.85
2023-04-22T10:38:46.913Z,26.85
2023-04-22T10:39:46.898Z,26.97
2023-04-22T10:40:46.901Z,27.00
2023-04-22T10:41:46.898Z,27.05
2023-04-22T10:42:46.869Z,27.16
2023-04-22T10:43:46.850Z,27.30
2023-04-22T10:44:46.873Z,27.49
2023-04-22T10:45:46.826Z,27.60
2023-04-22T10:46:47.032Z,27.83
2023-04-22T10:47:46.870Z,27.91
2023-04-22T10:48:46.802Z,28.07
2023-04-22T10:49:46.794Z,28.30
2023-04-22T10:50:46.817Z,28.32
2023-04-22T10:51:46.773Z,28.38
2023-04-22T10:52:46.809Z,28.54
2023-04-22T10:53:46.748Z,28.61
2023-04-22T10:54:46.751Z,28.64
2023-04-22T10:55:46.741Z,28.77
2023-04-22T10:56:51.835Z,28.79
2023-04-22T10:57:47.724Z,28.89
2023-04-22T10:58:46.698Z,28.86
2023-04-22T11:00:53.605Z,28.90
2023-04-22T11:01:47.730Z,28.91
2023-04-22T11:02:46.858Z,28.96
2023-04-22T11:03:46.764Z,29.06
2023-04-22T11:04:46.672Z,29.06
2023-04-22T11:05:46.632Z,29.15
2023-04-22T11:06:46.630Z,29.19
2023-04-22T11:07:46.598Z,29.24
2023-04-22T11:08:46.612Z,29.24
2023-04-22T11:09:46.607Z,29.31
2023-04-22T11:10:46.572Z,29.28
2023-04-22T11:11:46.559Z,29.37
2023-04-22T11:12:46.551Z,29.44
2023-04-22T11:13:46.542Z,29.47
2023-04-22T11:14:46.582Z,29.59
2023-04-22T11:15:46.547Z,29.65
2023-04-22T11:16:46.601Z,29.70
2023-04-22T11:17:46.560Z,29.77
2023-04-22T11:18:46.552Z,29.96
2023-04-22T11:19:46.498Z,30.07
2023-04-22T11:20:46.514Z,30.17
2023-04-22T11:21:46.475Z,30.28
2023-04-22T11:22:46.467Z,30.37
2023-04-22T11:23:46.437Z,30.56
2023-04-22T11:24:46.465Z,30.65
2023-04-22T11:25:46.431Z,30.80
2023-04-22T11:26:46.419Z,30.89
2023-04-22T11:27:46.414Z,30.93
2023-04-22T11:28:46.397Z,31.11
2023-04-22T11:29:46.379Z,31.14
2023-04-22T11:30:46.385Z,31.08
2023-04-22T11:31:46.444Z,31.20
2023-04-22T11:32:46.481Z,31.22
2023-04-22T11:33:47.320Z,31.20
2023-04-22T11:34:46.335Z,31.30
2023-04-22T11:35:46.337Z,31.37
2023-04-22T11:36:46.304Z,31.34
2023-04-22T11:37:46.289Z,31.39
2023-04-22T11:38:46.285Z,31.29
2023-04-22T11:40:01.914Z,31.32
2023-04-22T11:40:47.830Z,31.30
2023-04-22T11:41:46.256Z,31.32
2023-04-22T11:42:46.252Z,31.22
2023-04-22T11:43:46.256Z,31.12
2023-04-22T11:44:46.226Z,31.04
2023-04-22T11:45:46.316Z,30.99
2023-04-22T11:46:46.224Z,30.95
2023-04-22T11:47:46.337Z,30.99
2023-04-22T11:48:46.185Z,30.90
2023-04-22T11:49:46.173Z,30.92
2023-04-22T11:50:46.188Z,30.95
2023-04-22T11:51:46.149Z,30.88
2023-04-22T11:52:46.144Z,30.89
2023-04-22T11:53:46.124Z,30.86
2023-04-22T11:54:46.123Z,30.80
2023-04-22T11:55:46.126Z,30.80
2023-04-22T11:56:46.125Z,30.80
2023-04-22T11:57:46.101Z,30.78
2023-04-22T11:58:46.086Z,30.78
2023-04-22T11:59:46.064Z,30.74
2023-04-22T12:00:46.114Z,30.73
2023-04-22T12:01:46.038Z,30.65
2023-04-22T12:02:46.188Z,30.67
2023-04-22T12:03:46.223Z,30.70
2023-04-22T12:04:46.014Z,30.56
2023-04-22T12:05:46.032Z,30.59
2023-04-22T12:06:46.043Z,30.65
2023-04-22T12:07:45.974Z,30.52
2023-04-22T12:08:45.968Z,30.55
2023-04-22T12:09:45.955Z,30.49
2023-04-22T12:10:45.951Z,30.39
2023-04-22T12:11:45.930Z,30.36
2023-04-22T12:12:45.965Z,30.45
2023-04-22T12:13:45.912Z,30.35
2023-04-22T12:14:45.909Z,30.35
2023-04-22T12:15:45.917Z,30.45
2023-04-22T12:16:45.914Z,30.36
2023-04-22T12:17:45.915Z,30.37
2023-04-22T12:18:45.869Z,30.36
2023-04-22T12:19:45.848Z,30.33
2023-04-22T12:20:45.863Z,30.28
2023-04-22T12:21:45.834Z,30.32
2023-04-22T12:22:45.850Z,30.33
2023-04-22T12:23:45.803Z,30.30
2023-04-22T12:24:45.801Z,30.28
2023-04-22T12:25:45.790Z,30.32
2023-04-22T12:26:45.799Z,30.37
2023-04-22T12:27:45.781Z,30.40
2023-04-22T12:28:45.795Z,30.39
2023-04-22T12:29:45.744Z,30.40
2023-04-22T12:30:45.769Z,30.39
2023-04-22T12:31:45.734Z,30.39
2023-04-22T12:32:45.740Z,30.37
2023-04-22T12:33:45.725Z,30.37
2023-04-22T12:34:45.707Z,30.36
2023-04-22T12:35:45.694Z,30.39
2023-04-22T12:36:45.706Z,30.46
2023-04-22T12:37:45.674Z,30.52
2023-04-22T12:38:45.668Z,30.51
2023-04-22T12:39:45.647Z,30.53
2023-04-22T12:40:45.642Z,30.51
2023-04-22T12:41:45.640Z,30.55
2023-04-22T12:42:45.646Z,30.58
2023-04-22T12:43:45.624Z,30.52
2023-04-22T12:44:45.609Z,30.64
2023-04-22T12:45:45.577Z,30.55
2023-04-22T12:46:45.685Z,30.64
2023-04-22T12:47:45.632Z,30.65
2023-04-22T12:48:45.578Z,30.64
2023-04-22T12:49:47.198Z,30.73
2023-04-22T12:50:45.546Z,30.65
2023-04-22T12:51:45.540Z,30.68
2023-04-22T12:52:45.507Z,30.74
2023-04-22T12:53:45.501Z,30.71